createdAt,value
2023-02-07T00:26:02.239Z,-5.72
2023-02-07T00:28:31.343Z,-5.23
2023-02-07T00:31:08.163Z,-5.17
2023-02-07T00:33:38.585Z,-5.18
2023-02-07T00:36:09.230Z,-5.24
2023-02-07T00:38:37.710Z,-5.28
2023-02-07T00:41:06.052Z,-5.33
2023-02-07T00:43:34.405Z,-5.39
2023-02-07T00:46:04.285Z,-5.45
2023-02-07T00:48:33.144Z,-5.52
2023-02-07T00:51:01.638Z,-5.61
2023-02-07T00:53:30.141Z,-5.66
2023-02-07T00:55:58.357Z,-5.71
2023-02-07T00:58:26.704Z,-5.75
2023-02-07T01:00:55.196Z,-5.79
2023-02-07T01:03:23.712Z,-5.83
2023-02-07T01:05:53.385Z,-5.84
2023-02-07T01:08:22.629Z,-5.77
2023-02-07T01:10:51.988Z,-5.65
2023-02-07T01:13:20.299Z,-5.55
2023-02-07T01:15:48.851Z,-5.50
2023-02-07T01:18:17.262Z,-5.47
2023-02-07T01:20:46.207Z,-5.44
2023-02-07T01:23:15.313Z,-5.43
2023-02-07T01:25:46.309Z,-5.43
2023-02-07T01:28:14.649Z,-5.43
2023-02-07T01:30:43.733Z,-5.42
2023-02-07T01:33:14.624Z,-5.42
2023-02-07T01:35:46.663Z,-5.42
2023-02-07T01:38:15.989Z,-5.40
2023-02-07T01:40:44.894Z,-5.33
2023-02-07T01:43:25.097Z,-5.20
2023-02-07T01:45:53.304Z,-5.11
2023-02-07T01:48:24.376Z,-5.08
2023-02-07T01:50:55.652Z,-5.07
2023-02-07T01:53:24.569Z,-5.08
2023-02-07T01:55:54.518Z,-5.08
2023-02-07T01:58:23.207Z,-5.10
2023-02-07T02:00:51.457Z,-5.12
2023-02-07T02:03:19.659Z,-5.14
2023-02-07T02:05:48.530Z,-5.16
2023-02-07T02:08:17.284Z,-5.17
2023-02-07T02:10:55.470Z,-5.10
2023-02-07T02:14:08.551Z,-4.99
2023-02-07T02:17:00.900Z,-4.91
2023-02-07T02:19:40.247Z,-4.90
2023-02-07T02:22:42.486Z,-4.89
2023-02-07T02:25:29.565Z,-4.90
2023-02-07T02:28:16.547Z,-4.90
2023-02-07T02:30:58.323Z,-4.90
2023-02-07T02:33:36.625Z,-4.89
2023-02-07T02:36:23.152Z,-4.88
2023-02-07T02:39:08.556Z,-4.88
2023-02-07T02:41:59.666Z,-4.79
2023-02-07T02:45:04.267Z,-4.64
2023-02-07T02:47:32.703Z,-4.54
2023-02-07T02:50:02.701Z,-4.53
2023-02-07T02:52:49.635Z,-4.54
2023-02-07T02:55:43.790Z,-4.57
2023-02-07T02:58:20.305Z,-4.58
2023-02-07T03:01:16.245Z,-4.60
2023-02-07T03:03:55.641Z,-4.64
2023-02-07T03:06:29.192Z,-4.66
2023-02-07T03:09:05.437Z,-4.68
2023-02-07T03:11:39.474Z,-4.70
2023-02-07T03:14:39.765Z,-4.66
2023-02-07T03:17:17.708Z,-4.55
2023-02-07T03:20:14.976Z,-4.52
2023-02-07T03:22:43.188Z,-4.53
2023-02-07T03:25:11.390Z,-4.54
2023-02-07T03:27:39.831Z,-4.56
2023-02-07T03:30:13.760Z,-4.58
2023-02-07T03:32:44.180Z,-4.59
2023-02-07T03:36:01.037Z,-4.63
2023-02-07T03:38:29.563Z,-4.69
2023-02-07T03:53:17.908Z,-3.98
2023-02-07T03:55:48.556Z,-4.03
2023-02-07T03:58:16.871Z,-4.18
2023-02-07T04:00:45.818Z,-4.31
2023-02-07T04:03:14.104Z,-4.45
2023-02-07T04:05:45.656Z,-4.58
2023-02-07T04:08:13.850Z,-4.71
2023-02-07T04:10:41.975Z,-4.74
2023-02-07T04:13:13.488Z,-4.73
2023-02-07T04:15:42.558Z,-4.76
2023-02-07T04:18:10.723Z,-4.81
2023-02-07T04:20:39.412Z,-4.87
2023-02-07T04:23:10.003Z,-4.94
2023-02-07T04:25:41.233Z,-5.02
2023-02-07T04:28:09.663Z,-5.09
2023-02-07T04:30:39.019Z,-5.14
2023-02-07T04:33:09.772Z,-5.20
2023-02-07T04:35:38.147Z,-5.25
2023-02-07T04:38:07.322Z,-5.30
2023-02-07T04:40:39.103Z,-5.34
2023-02-07T04:43:09.604Z,-5.37
2023-02-07T04:45:38.251Z,-5.32
2023-02-07T04:48:06.617Z,-5.23
2023-02-07T04:50:39.152Z,-5.16
2023-02-07T04:53:07.702Z,-5.16
2023-02-07T04:55:37.779Z,-5.16
2023-02-07T04:58:06.664Z,-5.19
2023-02-07T05:00:39.355Z,-5.20
2023-02-07T05:03:07.602Z,-5.22
2023-02-07T05:05:40.795Z,-5.24
2023-02-07T05:08:11.957Z,-5.26
2023-02-07T05:10:40.644Z,-5.27
2023-02-07T05:13:09.429Z,-5.28
2023-02-07T05:15:40.370Z,-5.23
2023-02-07T05:18:09.175Z,-5.13
2023-02-07T05:20:37.647Z,-5.04
2023-02-07T05:23:05.906Z,-5.00
2023-02-07T05:25:34.434Z,-4.99
2023-02-07T05:28:03.105Z,-5.02
2023-02-07T05:30:33.734Z,-5.04
2023-02-07T05:33:05.089Z,-5.05
2023-02-07T05:35:43.191Z,-5.09
2023-02-07T05:38:13.322Z,-5.12
2023-02-07T05:40:43.511Z,-5.14
2023-02-07T05:43:13.432Z,-5.15
2023-02-07T05:45:41.880Z,-5.10
2023-02-07T05:48:15.119Z,-4.99
2023-02-07T05:50:43.370Z,-4.90
2023-02-07T05:53:13.859Z,-4.85
2023-02-07T05:55:45.262Z,-4.82
2023-02-07T05:58:13.336Z,-4.81
2023-02-07T06:00:41.595Z,-4.82
2023-02-07T06:03:10.330Z,-4.82
2023-02-07T06:05:43.503Z,-4.81
2023-02-07T06:08:16.913Z,-4.80
2023-02-07T06:10:53.738Z,-4.79
2023-02-07T06:13:26.031Z,-4.71
2023-02-07T06:15:56.545Z,-4.59
2023-02-07T06:18:45.126Z,-4.48
2023-02-07T06:21:13.239Z,-4.44
2023-02-07T06:23:41.867Z,-4.41
2023-02-07T06:26:10.204Z,-4.40
2023-02-07T06:28:38.463Z,-4.39
2023-02-07T06:31:07.150Z,-4.37
2023-02-07T06:33:36.139Z,-4.40
2023-02-07T06:36:04.989Z,-4.43
2023-02-07T06:38:34.082Z,-4.45
2023-02-07T06:41:05.324Z,-4.46
2023-02-07T06:43:34.629Z,-4.37
2023-02-07T06:46:02.848Z,-4.25
2023-02-07T06:48:31.274Z,-4.16
2023-02-07T06:50:59.670Z,-4.12
2023-02-07T06:53:29.743Z,-4.10
2023-02-07T06:55:57.901Z,-4.09
2023-02-07T06:58:26.050Z,-4.08
2023-02-07T07:00:54.532Z,-4.08
2023-02-07T07:03:28.996Z,-4.06
2023-02-07T07:05:58.227Z,-4.03
2023-02-07T07:08:26.805Z,-4.01
2023-02-07T07:10:58.787Z,-4.01
2023-02-07T07:13:27.039Z,-3.96
2023-02-07T07:15:55.307Z,-3.85
2023-02-07T07:18:27.130Z,-3.77
2023-02-07T07:20:55.950Z,-3.72
2023-02-07T09:35:52.050Z,-1.96
2023-02-07T09:38:25.898Z,-1.63
2023-02-07T09:40:54.431Z,-1.66
2023-02-07T09:44:04.911Z,-1.63
2023-02-07T09:46:40.488Z,-1.52
2023-02-07T09:49:18.874Z,-1.50
2023-02-07T09:51:48.683Z,-1.46
2023-02-07T09:54:33.782Z,-1.44
2023-02-07T09:57:04.274Z,-1.47
2023-02-07T09:59:46.236Z,-1.54
2023-02-07T10:02:44.692Z,-1.61
2023-02-07T10:05:17.989Z,-1.64
2023-02-07T10:07:46.962Z,-1.68
2023-02-07T10:10:20.080Z,-1.63
2023-02-07T10:13:08.644Z,-1.50
2023-02-07T10:16:06.771Z,-1.44
2023-02-07T10:19:11.072Z,-1.45
2023-02-07T10:21:51.918Z,-1.54
2023-02-07T10:24:29.028Z,-1.65
2023-02-07T10:27:05.544Z,-1.73
2023-02-07T10:29:57.546Z,-1.77
2023-02-07T10:32:32.739Z,-1.80
2023-02-07T10:35:16.796Z,-1.80
2023-02-07T10:37:45.046Z,-1.71
2023-02-07T10:40:17.603Z,-1.60
2023-02-07T10:42:48.039Z,-1.53
2023-02-07T10:45:17.253Z,-1.51
2023-02-07T10:47:48.338Z,-1.53
2023-02-07T10:50:24.966Z,-1.61
2023-02-07T10:52:58.082Z,-1.69
2023-02-07T10:55:46.703Z,-1.76
2023-02-07T10:58:22.836Z,-1.80
2023-02-07T11:00:53.917Z,-1.81
2023-02-07T11:03:27.584Z,-1.70
2023-02-07T11:05:58.356Z,-1.54
2023-02-07T11:08:28.963Z,-1.47
2023-02-07T11:10:58.446Z,-1.44
2023-02-07T11:13:29.504Z,-1.46
2023-02-07T11:16:10.725Z,-1.53
2023-02-07T11:18:59.657Z,-1.58
2023-02-07T11:21:34.690Z,-1.58
2023-02-07T11:24:36.896Z,-1.58
2023-02-07T11:27:11.052Z,-1.59
2023-02-07T11:29:56.991Z,-1.52
2023-02-07T11:32:26.564Z,-1.45
2023-02-07T11:34:59.106Z,-1.42
2023-02-07T11:37:30.580Z,-1.44
2023-02-07T11:40:25.365Z,-1.43
2023-02-07T11:43:01.260Z,-1.39
2023-02-07T11:45:30.010Z,-1.37
2023-02-07T11:47:58.074Z,-1.35
2023-02-07T11:50:34.203Z,-1.37
2023-02-07T11:53:03.374Z,-1.37
2023-02-07T11:55:35.571Z,-1.35
2023-02-07T11:58:20.286Z,-1.26
2023-02-07T12:00:48.620Z,-1.14
2023-02-07T12:03:23.776Z,-1.06
2023-02-07T12:05:57.335Z,-1.02
2023-02-07T12:08:32.249Z,-1.00
2023-02-07T12:11:12.892Z,-0.96
2023-02-07T12:13:44.079Z,-0.96
2023-02-07T12:16:27.893Z,-0.99
2023-02-07T12:18:57.111Z,-1.06
2023-02-07T12:21:33.653Z,-1.14
2023-02-07T12:24:21.031Z,-1.21
2023-02-07T12:26:57.484Z,-1.19
2023-02-07T12:29:38.410Z,-1.12
2023-02-07T12:32:27.462Z,-1.11
2023-02-07T12:34:58.475Z,-1.18
2023-02-07T12:37:39.242Z,-1.27
2023-02-07T12:40:23.074Z,-1.34
2023-02-07T12:43:32.269Z,-1.39
2023-02-07T12:46:00.800Z,-1.45
2023-02-07T12:48:51.218Z,-1.50
2023-02-07T12:52:11.661Z,-1.45
2023-02-07T12:54:56.544Z,-1.37
2023-02-07T12:57:33.894Z,-1.39
2023-02-07T13:00:24.139Z,-1.43
2023-02-07T13:02:58.489Z,-1.45
2023-02-07T13:05:56.761Z,-1.47
2023-02-07T15:57:12.716Z,-2.26
2023-02-07T15:59:42.089Z,-1.92
2023-02-07T16:02:15.387Z,-1.91
2023-02-07T16:04:47.813Z,-1.85
2023-02-07T16:07:20.217Z,-1.86
2023-02-07T16:09:49.075Z,-1.93
2023-02-07T16:12:43.138Z,-2.03
2023-02-07T16:21:14.206Z,-2.19
2023-02-07T16:23:43.771Z,-2.15
2023-02-07T16:26:13.185Z,-2.12
2023-02-07T16:28:41.911Z,-2.13
2023-02-07T16:31:10.813Z,-2.17
2023-02-07T16:33:40.075Z,-2.23
2023-02-07T16:36:16.247Z,-2.26
2023-02-07T16:38:44.834Z,-2.31
2023-02-07T16:41:28.505Z,-2.30
2023-02-07T16:43:59.109Z,-2.25
2023-02-07T16:46:27.544Z,-2.25
2023-02-07T16:48:58.252Z,-2.29
2023-02-07T16:51:34.361Z,-2.31
2023-02-07T16:54:05.796Z,-2.35
2023-02-07T16:56:37.336Z,-2.36
2023-02-07T16:59:13.244Z,-2.33
2023-02-07T17:01:41.581Z,-2.25
2023-02-07T17:04:11.536Z,-2.23
2023-02-07T17:06:41.051Z,-2.22
2023-02-07T17:09:20.144Z,-2.23
2023-02-07T17:11:49.264Z,-2.25
2023-02-07T17:14:18.735Z,-2.29
2023-02-07T17:16:47.810Z,-2.35
2023-02-07T17:19:20.601Z,-2.34
2023-02-07T17:21:49.249Z,-2.27
2023-02-07T17:24:19.512Z,-2.24
2023-02-07T17:26:51.734Z,-2.24
2023-02-07T17:29:21.536Z,-2.24
2023-02-07T17:31:50.337Z,-2.26
2023-02-07T17:34:19.688Z,-2.28
2023-02-07T17:36:49.441Z,-2.32
2023-02-07T17:39:18.996Z,-2.27
2023-02-07T17:41:47.670Z,-2.20
2023-02-07T17:44:17.344Z,-2.14
2023-02-07T17:46:45.598Z,-2.12
2023-02-07T17:49:14.880Z,-2.13
2023-02-07T17:51:43.184Z,-2.14
2023-02-07T17:54:12.817Z,-2.17
2023-02-07T17:56:42.008Z,-2.20
2023-02-07T17:59:19.284Z,-2.19
2023-02-07T18:01:47.884Z,-2.11
2023-02-07T18:04:19.562Z,-2.09
2023-02-07T18:06:49.571Z,-2.10
2023-02-07T18:09:22.311Z,-2.13
2023-02-07T18:11:50.897Z,-2.18
2023-02-07T18:14:23.736Z,-2.22
2023-02-07T18:17:05.647Z,-2.24
2023-02-07T18:19:39.487Z,-2.19
2023-02-07T18:22:38.283Z,-2.06
2023-02-07T18:25:08.812Z,-1.97
2023-02-07T18:27:39.384Z,-1.93
2023-02-07T18:30:10.029Z,-1.90
2023-02-07T18:32:39.765Z,-1.90
2023-02-07T18:35:08.653Z,-1.91
2023-02-07T18:37:40.733Z,-1.94
2023-02-07T18:40:13.155Z,-1.92
2023-02-07T18:42:43.947Z,-1.86
2023-02-07T18:45:14.650Z,-1.82
2023-02-07T18:47:46.422Z,-1.80
2023-02-07T18:50:14.612Z,-1.80
2023-02-07T18:52:47.972Z,-1.84
2023-02-07T18:56:46.296Z,-1.91
2023-02-07T18:59:17.416Z,-1.97
2023-02-07T19:01:51.316Z,-1.94
2023-02-07T19:04:22.489Z,-1.90
2023-02-07T20:13:50.401Z,-2.41
2023-02-07T20:16:24.678Z,-2.10
2023-02-07T20:18:53.411Z,-2.07
2023-02-07T20:21:23.679Z,-2.00
2023-02-07T20:23:53.055Z,-1.95
2023-02-07T20:26:33.273Z,-1.94
2023-02-07T20:29:02.562Z,-1.97
2023-02-07T20:31:33.528Z,-2.02
2023-02-07T20:34:03.778Z,-2.08
2023-02-07T20:36:33.963Z,-2.10
2023-02-07T20:39:03.337Z,-2.09
2023-02-07T20:41:40.196Z,-2.10
2023-02-07T20:44:15.685Z,-2.14
2023-02-07T20:46:46.758Z,-2.16
2023-02-07T20:49:21.078Z,-2.16
2023-02-07T20:51:50.682Z,-2.18
2023-02-07T20:54:21.408Z,-2.18
2023-02-07T20:56:50.803Z,-2.13
2023-02-07T20:59:21.338Z,-2.06
2023-02-07T21:01:49.524Z,-2.06
2023-02-07T21:04:17.799Z,-2.11
2023-02-07T21:06:46.067Z,-2.19
2023-02-07T21:09:14.594Z,-2.23
2023-02-07T21:11:45.427Z,-2.21
2023-02-07T21:14:25.698Z,-2.12
2023-02-07T21:16:55.128Z,-2.10
2023-02-07T21:19:23.935Z,-2.11
2023-02-07T21:21:52.455Z,-2.14
2023-02-07T21:24:20.976Z,-2.16
2023-02-07T21:26:49.533Z,-2.16
2023-02-07T21:29:18.298Z,-2.11
2023-02-07T21:31:46.673Z,-2.03
2023-02-07T21:34:17.929Z,-2.02
2023-02-07T21:36:46.721Z,-2.05
2023-02-07T21:39:15.477Z,-2.09
2023-02-07T21:41:45.121Z,-2.14
2023-02-07T21:44:13.766Z,-2.18
2023-02-07T21:46:43.061Z,-2.14
2023-02-07T21:49:14.831Z,-2.05
2023-02-07T21:51:44.646Z,-2.00
2023-02-07T21:54:13.078Z,-1.97
2023-02-07T21:56:42.759Z,-1.98
2023-02-07T21:59:15.969Z,-2.02
2023-02-07T22:01:45.538Z,-2.08
2023-02-07T22:04:14.464Z,-2.14
2023-02-07T22:06:43.990Z,-2.14
2023-02-07T22:09:13.388Z,-2.14
2023-02-07T22:11:42.452Z,-2.16
2023-02-07T22:14:13.689Z,-2.20
2023-02-07T22:16:43.475Z,-2.26
2023-02-07T22:19:13.886Z,-2.36
2023-02-07T22:21:44.588Z,-2.40
2023-02-07T22:24:14.112Z,-2.35
2023-02-07T22:26:42.610Z,-2.33
2023-02-07T22:29:10.855Z,-2.35
2023-02-07T22:31:39.981Z,-2.40
2023-02-07T22:34:10.756Z,-2.47
2023-02-07T22:36:40.558Z,-2.56
2023-02-07T22:39:09.097Z,-2.55
2023-02-07T22:41:37.197Z,-2.52
2023-02-07T22:44:05.632Z,-2.54
2023-02-07T22:46:33.985Z,-2.60
2023-02-07T22:49:02.105Z,-2.74
2023-02-07T22:51:35.366Z,-2.91
2023-02-07T22:54:07.088Z,-3.06
2023-02-07T22:56:37.479Z,-3.14
2023-02-07T22:59:05.860Z,-3.17
2023-02-07T23:01:36.957Z,-3.25
2023-02-07T23:04:08.047Z,-3.37
2023-02-07T23:06:36.474Z,-3.45
2023-02-07T23:09:05.584Z,-3.54
2023-02-07T23:11:34.356Z,-3.60
2023-02-07T23:14:03.146Z,-3.66
2023-02-07T23:16:32.013Z,-3.65
2023-02-07T23:19:13.316Z,-3.62
2023-02-07T23:21:41.888Z,-3.63
2023-02-07T23:24:10.776Z,-3.68
2023-02-07T23:26:39.411Z,-3.75
2023-02-07T23:29:07.542Z,-3.80
2023-02-07T23:31:35.761Z,-3.84
2023-02-07T23:34:04.776Z,-3.86
2023-02-07T23:36:33.009Z,-3.79
2023-02-07T23:39:01.100Z,-3.72
2023-02-07T23:41:29.434Z,-3.70
2023-02-07T23:43:59.633Z,-3.70
2023-02-07T23:46:27.857Z,-3.73
2023-02-07T23:48:59.325Z,-3.77
2023-02-07T23:51:28.665Z,-3.82
2023-02-07T23:53:57.869Z,-3.87
2023-02-07T23:56:27.465Z,-3.86
2023-02-07T23:58:55.697Z,-3.82
